Slidell, Texas
Current Conditions -  °F | °C
As of 8:55 PM on Friday 21 Nov 2014 (Local Time) from KLUD Reporting Station
Haze Haze  
Wind Chill: 64°   Ceiling: 600
Heat Index: 64°   Visibility: 5mi
Dew Point: 62°   Wind: 13mph
Humidity: 96%   Direction: 140°SE
Pressure: 30.06"   Gusts: NA
Location:  33.36°N, 97.39°W
Report Text: KLUD 220255Z AUTO 14011KT 5SM BR OVC006 18/17 A3006 RMK AO2 T01750169
Loading
Personal Weather Stations






























Interactive Weather Map New forecast layout! Learn more

10-Day Weather Forecast

Advertisements
Track Severe Weather on mobile